sensor_id;sensor_type;location;lat;lon;timestamp;P1;durP1;ratioP1;P2;durP2;ratioP2
35578;SDS011;21687;48.900;9.188;2023-02-04T00:01:40;7.70;;;6.33;;
35578;SDS011;21687;48.900;9.188;2023-02-04T00:04:06;8.13;;;6.83;;
35578;SDS011;21687;48.900;9.188;2023-02-04T00:06:33;8.87;;;6.50;;
35578;SDS011;21687;48.900;9.188;2023-02-04T00:08:59;8.60;;;6.67;;
35578;SDS011;21687;48.900;9.188;2023-02-04T00:11:25;8.90;;;6.53;;
35578;SDS011;21687;48.900;9.188;2023-02-04T00:13:51;9.00;;;6.73;;
35578;SDS011;21687;48.900;9.188;2023-02-04T00:16:17;7.13;;;6.27;;
35578;SDS011;21687;48.900;9.188;2023-02-04T00:18:44;8.13;;;6.13;;
35578;SDS011;21687;48.900;9.188;2023-02-04T00:21:10;7.60;;;6.50;;
35578;SDS011;21687;48.900;9.188;2023-02-04T00:23:36;7.80;;;6.37;;
35578;SDS011;21687;48.900;9.188;2023-02-04T00:26:02;8.83;;;7.27;;
35578;SDS011;21687;48.900;9.188;2023-02-04T00:28:29;7.10;;;6.30;;
35578;SDS011;21687;48.900;9.188;2023-02-04T00:30:55;8.60;;;6.93;;
35578;SDS011;21687;48.900;9.188;2023-02-04T00:33:21;8.77;;;6.43;;
35578;SDS011;21687;48.900;9.188;2023-02-04T00:35:48;9.50;;;5.90;;
35578;SDS011;21687;48.900;9.188;2023-02-04T00:38:14;6.10;;;5.03;;
35578;SDS011;21687;48.900;9.188;2023-02-04T00:40:40;8.13;;;6.00;;
35578;SDS011;21687;48.900;9.188;2023-02-04T00:43:06;5.80;;;5.00;;
35578;SDS011;21687;48.900;9.188;2023-02-04T00:45:33;6.10;;;5.50;;
35578;SDS011;21687;48.900;9.188;2023-02-04T00:47:59;5.93;;;5.23;;
35578;SDS011;21687;48.900;9.188;2023-02-04T00:50:25;10.77;;;5.53;;
35578;SDS011;21687;48.900;9.188;2023-02-04T00:52:51;6.53;;;4.53;;
35578;SDS011;21687;48.900;9.188;2023-02-04T00:55:18;4.80;;;4.33;;
35578;SDS011;21687;48.900;9.188;2023-02-04T00:57:44;6.43;;;4.30;;
35578;SDS011;21687;48.900;9.188;2023-02-04T01:00:15;5.77;;;4.00;;
35578;SDS011;21687;48.900;9.188;2023-02-04T01:02:42;4.90;;;3.80;;
35578;SDS011;21687;48.900;9.188;2023-02-04T01:05:08;5.87;;;4.50;;
35578;SDS011;21687;48.900;9.188;2023-02-04T01:07:35;8.77;;;3.87;;
35578;SDS011;21687;48.900;9.188;2023-02-04T01:10:01;8.83;;;3.63;;
35578;SDS011;21687;48.900;9.188;2023-02-04T01:12:28;5.93;;;4.83;;
35578;SDS011;21687;48.900;9.188;2023-02-04T01:14:54;10.70;;;4.07;;
35578;SDS011;21687;48.900;9.188;2023-02-04T01:17:20;7.77;;;3.47;;
35578;SDS011;21687;48.900;9.188;2023-02-04T01:19:47;4.67;;;4.00;;
35578;SDS011;21687;48.900;9.188;2023-02-04T01:22:13;8.63;;;4.60;;
35578;SDS011;21687;48.900;9.188;2023-02-04T01:24:39;4.37;;;3.37;;
35578;SDS011;21687;48.900;9.188;2023-02-04T01:27:05;7.17;;;3.47;;
35578;SDS011;21687;48.900;9.188;2023-02-04T01:29:32;3.40;;;2.93;;
35578;SDS011;21687;48.900;9.188;2023-02-04T01:31:58;4.50;;;3.30;;
35578;SDS011;21687;48.900;9.188;2023-02-04T01:34:24;6.43;;;3.63;;
35578;SDS011;21687;48.900;9.188;2023-02-04T01:36:50;6.10;;;3.43;;
35578;SDS011;21687;48.900;9.188;2023-02-04T01:39:17;5.03;;;3.57;;
35578;SDS011;21687;48.900;9.188;2023-02-04T01:41:43;4.87;;;4.20;;
35578;SDS011;21687;48.900;9.188;2023-02-04T01:44:10;5.13;;;3.47;;
35578;SDS011;21687;48.900;9.188;2023-02-04T01:46:36;6.70;;;4.10;;
35578;SDS011;21687;48.900;9.188;2023-02-04T01:49:03;6.47;;;4.00;;
35578;SDS011;21687;48.900;9.188;2023-02-04T01:51:30;4.13;;;3.73;;
35578;SDS011;21687;48.900;9.188;2023-02-04T01:53:58;5.17;;;3.70;;
35578;SDS011;21687;48.900;9.188;2023-02-04T01:56:25;3.90;;;3.13;;
35578;SDS011;21687;48.900;9.188;2023-02-04T01:58:54;3.13;;;2.83;;
35578;SDS011;21687;48.900;9.188;2023-02-04T02:01:37;5.83;;;3.57;;
35578;SDS011;21687;48.900;9.188;2023-02-04T02:04:16;4.20;;;3.03;;
35578;SDS011;21687;48.900;9.188;2023-02-04T02:06:46;4.00;;;2.70;;
35578;SDS011;21687;48.900;9.188;2023-02-04T02:09:17;7.67;;;3.23;;
35578;SDS011;21687;48.900;9.188;2023-02-04T02:11:44;6.93;;;3.33;;
35578;SDS011;21687;48.900;9.188;2023-02-04T02:14:10;6.90;;;3.00;;
35578;SDS011;21687;48.900;9.188;2023-02-04T02:16:37;4.33;;;2.70;;
35578;SDS011;21687;48.900;9.188;2023-02-04T02:19:04;7.07;;;2.87;;
35578;SDS011;21687;48.900;9.188;2023-02-04T02:21:43;7.23;;;2.80;;
35578;SDS011;21687;48.900;9.188;2023-02-04T02:24:36;4.60;;;2.67;;
35578;SDS011;21687;48.900;9.188;2023-02-04T02:27:04;5.63;;;2.90;;
35578;SDS011;21687;48.900;9.188;2023-02-04T02:29:35;3.13;;;2.60;;
35578;SDS011;21687;48.900;9.188;2023-02-04T02:32:04;7.40;;;3.30;;
35578;SDS011;21687;48.900;9.188;2023-02-04T02:34:31;3.67;;;2.60;;
35578;SDS011;21687;48.900;9.188;2023-02-04T02:36:58;6.27;;;3.30;;
35578;SDS011;21687;48.900;9.188;2023-02-04T02:39:26;3.40;;;2.70;;
35578;SDS011;21687;48.900;9.188;2023-02-04T02:41:53;4.27;;;2.87;;
35578;SDS011;21687;48.900;9.188;2023-02-04T02:44:20;3.37;;;2.60;;
35578;SDS011;21687;48.900;9.188;2023-02-04T02:46:47;3.73;;;2.63;;
35578;SDS011;21687;48.900;9.188;2023-02-04T02:49:15;9.50;;;2.80;;
35578;SDS011;21687;48.900;9.188;2023-02-04T02:51:42;6.40;;;2.80;;
35578;SDS011;21687;48.900;9.188;2023-02-04T02:54:17;8.70;;;2.87;;
35578;SDS011;21687;48.900;9.188;2023-02-04T02:56:47;4.53;;;2.60;;
35578;SDS011;21687;48.900;9.188;2023-02-04T02:59:14;12.20;;;2.80;;
35578;SDS011;21687;48.900;9.188;2023-02-04T03:01:41;10.43;;;2.97;;
35578;SDS011;21687;48.900;9.188;2023-02-04T03:04:09;7.40;;;3.17;;
35578;SDS011;21687;48.900;9.188;2023-02-04T03:06:36;7.10;;;2.80;;
35578;SDS011;21687;48.900;9.188;2023-02-04T03:09:03;6.27;;;2.77;;
35578;SDS011;21687;48.900;9.188;2023-02-04T03:11:29;8.10;;;2.73;;
35578;SDS011;21687;48.900;9.188;2023-02-04T03:13:56;10.47;;;3.17;;
35578;SDS011;21687;48.900;9.188;2023-02-04T03:16:26;8.60;;;2.77;;
35578;SDS011;21687;48.900;9.188;2023-02-04T03:18:56;7.63;;;3.03;;
35578;SDS011;21687;48.900;9.188;2023-02-04T03:21:27;7.33;;;2.90;;
35578;SDS011;21687;48.900;9.188;2023-02-04T03:23:54;7.77;;;2.70;;
35578;SDS011;21687;48.900;9.188;2023-02-04T03:26:24;6.90;;;3.10;;
35578;SDS011;21687;48.900;9.188;2023-02-04T03:28:52;8.67;;;3.00;;
35578;SDS011;21687;48.900;9.188;2023-02-04T03:31:18;6.47;;;2.97;;
35578;SDS011;21687;48.900;9.188;2023-02-04T03:33:45;8.90;;;2.77;;
35578;SDS011;21687;48.900;9.188;2023-02-04T03:36:11;9.03;;;2.83;;
35578;SDS011;21687;48.900;9.188;2023-02-04T03:38:37;6.23;;;2.70;;
35578;SDS011;21687;48.900;9.188;2023-02-04T03:41:03;12.40;;;3.00;;
35578;SDS011;21687;48.900;9.188;2023-02-04T03:43:30;7.57;;;2.70;;
35578;SDS011;21687;48.900;9.188;2023-02-04T03:45:56;6.77;;;2.50;;
35578;SDS011;21687;48.900;9.188;2023-02-04T03:48:22;6.83;;;2.47;;
35578;SDS011;21687;48.900;9.188;2023-02-04T03:50:48;9.90;;;2.50;;
35578;SDS011;21687;48.900;9.188;2023-02-04T03:53:14;8.23;;;2.60;;
35578;SDS011;21687;48.900;9.188;2023-02-04T03:55:41;13.97;;;2.90;;
35578;SDS011;21687;48.900;9.188;2023-02-04T03:58:07;5.23;;;2.47;;
35578;SDS011;21687;48.900;9.188;2023-02-04T04:00:33;4.00;;;2.40;;
35578;SDS011;21687;48.900;9.188;2023-02-04T04:02:59;12.57;;;2.60;;
35578;SDS011;21687;48.900;9.188;2023-02-04T04:05:26;5.83;;;2.47;;
35578;SDS011;21687;48.900;9.188;2023-02-04T04:07:52;7.77;;;2.83;;
35578;SDS011;21687;48.900;9.188;2023-02-04T04:10:18;6.47;;;2.67;;
35578;SDS011;21687;48.900;9.188;2023-02-04T04:12:45;11.30;;;2.43;;
35578;SDS011;21687;48.900;9.188;2023-02-04T04:15:11;5.97;;;2.53;;
35578;SDS011;21687;48.900;9.188;2023-02-04T04:17:37;7.93;;;2.50;;
35578;SDS011;21687;48.900;9.188;2023-02-04T04:20:03;7.30;;;2.77;;
35578;SDS011;21687;48.900;9.188;2023-02-04T04:22:30;8.10;;;3.03;;
35578;SDS011;21687;48.900;9.188;2023-02-04T04:24:57;10.87;;;2.60;;
35578;SDS011;21687;48.900;9.188;2023-02-04T04:27:24;8.70;;;3.03;;
35578;SDS011;21687;48.900;9.188;2023-02-04T04:29:50;5.43;;;2.50;;
35578;SDS011;21687;48.900;9.188;2023-02-04T04:32:16;6.73;;;2.70;;
35578;SDS011;21687;48.900;9.188;2023-02-04T04:34:42;7.30;;;2.63;;
35578;SDS011;21687;48.900;9.188;2023-02-04T04:37:08;8.60;;;2.90;;
35578;SDS011;21687;48.900;9.188;2023-02-04T04:39:35;8.50;;;3.00;;
35578;SDS011;21687;48.900;9.188;2023-02-04T04:42:01;5.60;;;2.60;;
35578;SDS011;21687;48.900;9.188;2023-02-04T04:44:27;13.43;;;2.73;;
35578;SDS011;21687;48.900;9.188;2023-02-04T04:46:54;11.23;;;3.63;;
35578;SDS011;21687;48.900;9.188;2023-02-04T04:49:20;7.47;;;2.83;;
35578;SDS011;21687;48.900;9.188;2023-02-04T04:51:46;8.83;;;2.83;;
35578;SDS011;21687;48.900;9.188;2023-02-04T04:54:12;9.57;;;3.83;;
35578;SDS011;21687;48.900;9.188;2023-02-04T04:56:38;7.07;;;2.80;;
35578;SDS011;21687;48.900;9.188;2023-02-04T04:59:05;9.77;;;2.90;;
35578;SDS011;21687;48.900;9.188;2023-02-04T05:01:31;9.60;;;4.20;;
35578;SDS011;21687;48.900;9.188;2023-02-04T05:03:57;11.60;;;3.17;;
35578;SDS011;21687;48.900;9.188;2023-02-04T05:06:24;8.73;;;3.40;;
35578;SDS011;21687;48.900;9.188;2023-02-04T05:08:51;9.50;;;3.33;;
35578;SDS011;21687;48.900;9.188;2023-02-04T05:11:17;12.80;;;4.27;;
35578;SDS011;21687;48.900;9.188;2023-02-04T05:13:44;6.67;;;3.40;;
35578;SDS011;21687;48.900;9.188;2023-02-04T05:16:10;12.87;;;3.67;;
35578;SDS011;21687;48.900;9.188;2023-02-04T05:18:37;10.57;;;3.57;;
35578;SDS011;21687;48.900;9.188;2023-02-04T05:21:04;5.00;;;3.20;;
35578;SDS011;21687;48.900;9.188;2023-02-04T05:23:30;12.47;;;3.63;;
35578;SDS011;21687;48.900;9.188;2023-02-04T05:25:57;9.70;;;3.30;;
35578;SDS011;21687;48.900;9.188;2023-02-04T05:28:24;9.53;;;3.80;;
35578;SDS011;21687;48.900;9.188;2023-02-04T05:30:50;10.83;;;3.70;;
35578;SDS011;21687;48.900;9.188;2023-02-04T05:33:16;8.93;;;4.03;;
35578;SDS011;21687;48.900;9.188;2023-02-04T05:35:42;12.93;;;4.23;;
35578;SDS011;21687;48.900;9.188;2023-02-04T05:38:09;12.10;;;4.03;;
35578;SDS011;21687;48.900;9.188;2023-02-04T05:40:35;6.67;;;3.83;;
35578;SDS011;21687;48.900;9.188;2023-02-04T05:43:01;9.50;;;3.80;;
35578;SDS011;21687;48.900;9.188;2023-02-04T05:45:29;11.70;;;4.60;;
35578;SDS011;21687;48.900;9.188;2023-02-04T05:47:55;12.93;;;4.67;;
35578;SDS011;21687;48.900;9.188;2023-02-04T05:50:21;7.63;;;4.13;;
35578;SDS011;21687;48.900;9.188;2023-02-04T05:52:47;11.20;;;4.70;;
35578;SDS011;21687;48.900;9.188;2023-02-04T05:55:13;9.70;;;4.00;;
35578;SDS011;21687;48.900;9.188;2023-02-04T05:57:40;11.03;;;4.47;;
35578;SDS011;21687;48.900;9.188;2023-02-04T06:00:06;10.57;;;4.30;;
35578;SDS011;21687;48.900;9.188;2023-02-04T06:02:33;13.27;;;4.97;;
35578;SDS011;21687;48.900;9.188;2023-02-04T06:05:00;9.93;;;4.20;;
35578;SDS011;21687;48.900;9.188;2023-02-04T06:07:26;12.43;;;4.50;;
35578;SDS011;21687;48.900;9.188;2023-02-04T06:09:52;11.00;;;4.37;;
35578;SDS011;21687;48.900;9.188;2023-02-04T06:12:18;13.47;;;4.83;;
35578;SDS011;21687;48.900;9.188;2023-02-04T06:14:44;10.67;;;4.53;;
35578;SDS011;21687;48.900;9.188;2023-02-04T06:17:11;14.07;;;4.90;;
35578;SDS011;21687;48.900;9.188;2023-02-04T06:19:37;8.70;;;4.43;;
35578;SDS011;21687;48.900;9.188;2023-02-04T06:22:03;12.83;;;4.63;;
35578;SDS011;21687;48.900;9.188;2023-02-04T06:24:29;12.30;;;5.67;;
35578;SDS011;21687;48.900;9.188;2023-02-04T06:26:55;13.13;;;5.13;;
35578;SDS011;21687;48.900;9.188;2023-02-04T06:29:21;10.50;;;4.60;;
35578;SDS011;21687;48.900;9.188;2023-02-04T06:31:48;9.03;;;4.63;;
35578;SDS011;21687;48.900;9.188;2023-02-04T06:34:14;10.00;;;4.43;;
35578;SDS011;21687;48.900;9.188;2023-02-04T06:36:40;9.83;;;4.50;;
35578;SDS011;21687;48.900;9.188;2023-02-04T06:39:07;13.37;;;4.77;;
35578;SDS011;21687;48.900;9.188;2023-02-04T06:41:33;12.40;;;5.60;;
35578;SDS011;21687;48.900;9.188;2023-02-04T06:43:59;11.43;;;5.30;;
35578;SDS011;21687;48.900;9.188;2023-02-04T06:46:25;11.70;;;5.37;;
35578;SDS011;21687;48.900;9.188;2023-02-04T06:48:51;10.87;;;4.77;;
35578;SDS011;21687;48.900;9.188;2023-02-04T06:51:18;16.47;;;5.60;;
35578;SDS011;21687;48.900;9.188;2023-02-04T06:53:44;11.40;;;5.37;;
35578;SDS011;21687;48.900;9.188;2023-02-04T06:56:10;12.53;;;5.13;;
35578;SDS011;21687;48.900;9.188;2023-02-04T06:58:36;14.40;;;5.50;;
35578;SDS011;21687;48.900;9.188;2023-02-04T07:01:03;12.50;;;5.57;;
35578;SDS011;21687;48.900;9.188;2023-02-04T07:03:30;14.60;;;5.47;;
35578;SDS011;21687;48.900;9.188;2023-02-04T07:05:56;13.07;;;5.40;;
35578;SDS011;21687;48.900;9.188;2023-02-04T07:08:23;13.20;;;5.00;;
35578;SDS011;21687;48.900;9.188;2023-02-04T07:10:49;12.93;;;5.50;;
35578;SDS011;21687;48.900;9.188;2023-02-04T07:13:15;14.57;;;5.20;;
35578;SDS011;21687;48.900;9.188;2023-02-04T07:15:41;17.27;;;5.97;;
35578;SDS011;21687;48.900;9.188;2023-02-04T07:18:07;13.23;;;5.90;;
35578;SDS011;21687;48.900;9.188;2023-02-04T07:20:34;17.23;;;5.87;;
35578;SDS011;21687;48.900;9.188;2023-02-04T07:23:00;13.40;;;6.10;;
35578;SDS011;21687;48.900;9.188;2023-02-04T07:25:26;17.43;;;6.10;;
35578;SDS011;21687;48.900;9.188;2023-02-04T07:27:52;15.17;;;5.87;;
35578;SDS011;21687;48.900;9.188;2023-02-04T07:30:20;31.27;;;6.60;;
35578;SDS011;21687;48.900;9.188;2023-02-04T07:32:46;12.77;;;5.57;;
35578;SDS011;21687;48.900;9.188;2023-02-04T07:35:12;15.77;;;5.53;;
35578;SDS011;21687;48.900;9.188;2023-02-04T07:37:38;14.47;;;5.00;;
35578;SDS011;21687;48.900;9.188;2023-02-04T07:40:05;11.83;;;4.83;;
35578;SDS011;21687;48.900;9.188;2023-02-04T07:42:31;16.87;;;7.13;;
35578;SDS011;21687;48.900;9.188;2023-02-04T07:44:57;15.70;;;5.30;;
35578;SDS011;21687;48.900;9.188;2023-02-04T07:47:24;10.47;;;4.80;;
35578;SDS011;21687;48.900;9.188;2023-02-04T07:49:50;14.93;;;5.37;;
35578;SDS011;21687;48.900;9.188;2023-02-04T07:52:18;19.70;;;5.30;;
35578;SDS011;21687;48.900;9.188;2023-02-04T07:54:44;10.33;;;4.93;;
35578;SDS011;21687;48.900;9.188;2023-02-04T07:57:10;15.17;;;5.87;;
35578;SDS011;21687;48.900;9.188;2023-02-04T07:59:37;15.70;;;5.03;;
35578;SDS011;21687;48.900;9.188;2023-02-04T08:02:03;11.10;;;4.77;;
35578;SDS011;21687;48.900;9.188;2023-02-04T08:04:29;9.20;;;4.70;;
35578;SDS011;21687;48.900;9.188;2023-02-04T08:06:57;11.60;;;5.47;;
35578;SDS011;21687;48.900;9.188;2023-02-04T08:09:35;10.83;;;5.20;;
35578;SDS011;21687;48.900;9.188;2023-02-04T08:12:01;17.03;;;5.60;;
35578;SDS011;21687;48.900;9.188;2023-02-04T08:14:28;14.17;;;6.07;;
35578;SDS011;21687;48.900;9.188;2023-02-04T08:16:54;13.67;;;5.50;;
35578;SDS011;21687;48.900;9.188;2023-02-04T08:19:21;11.67;;;5.20;;
35578;SDS011;21687;48.900;9.188;2023-02-04T08:21:47;18.40;;;6.00;;
35578;SDS011;21687;48.900;9.188;2023-02-04T08:24:14;13.50;;;5.00;;
35578;SDS011;21687;48.900;9.188;2023-02-04T08:26:41;16.73;;;5.00;;
35578;SDS011;21687;48.900;9.188;2023-02-04T08:29:08;11.80;;;5.30;;
35578;SDS011;21687;48.900;9.188;2023-02-04T08:31:35;16.63;;;5.57;;
35578;SDS011;21687;48.900;9.188;2023-02-04T08:34:03;14.90;;;5.30;;
35578;SDS011;21687;48.900;9.188;2023-02-04T08:36:29;13.63;;;6.17;;
35578;SDS011;21687;48.900;9.188;2023-02-04T08:38:56;17.87;;;6.20;;
35578;SDS011;21687;48.900;9.188;2023-02-04T08:41:22;15.73;;;6.10;;
35578;SDS011;21687;48.900;9.188;2023-02-04T08:43:48;14.17;;;5.87;;
35578;SDS011;21687;48.900;9.188;2023-02-04T08:46:14;13.07;;;6.10;;
35578;SDS011;21687;48.900;9.188;2023-02-04T08:48:41;16.97;;;6.30;;
35578;SDS011;21687;48.900;9.188;2023-02-04T08:51:07;16.70;;;6.77;;
35578;SDS011;21687;48.900;9.188;2023-02-04T08:53:33;11.93;;;5.97;;
35578;SDS011;21687;48.900;9.188;2023-02-04T08:55:59;14.47;;;6.87;;
35578;SDS011;21687;48.900;9.188;2023-02-04T08:58:26;15.77;;;7.43;;
35578;SDS011;21687;48.900;9.188;2023-02-04T09:00:52;16.33;;;6.60;;
35578;SDS011;21687;48.900;9.188;2023-02-04T09:03:18;13.07;;;6.10;;
35578;SDS011;21687;48.900;9.188;2023-02-04T09:05:44;18.93;;;6.80;;
35578;SDS011;21687;48.900;9.188;2023-02-04T09:08:11;16.20;;;6.60;;
35578;SDS011;21687;48.900;9.188;2023-02-04T09:10:39;16.03;;;7.20;;
35578;SDS011;21687;48.900;9.188;2023-02-04T09:13:05;16.07;;;6.67;;
35578;SDS011;21687;48.900;9.188;2023-02-04T09:15:35;16.97;;;7.67;;
35578;SDS011;21687;48.900;9.188;2023-02-04T09:18:01;17.53;;;7.27;;
35578;SDS011;21687;48.900;9.188;2023-02-04T09:20:39;14.67;;;7.77;;
35578;SDS011;21687;48.900;9.188;2023-02-04T09:23:05;16.87;;;6.80;;
35578;SDS011;21687;48.900;9.188;2023-02-04T09:25:36;12.30;;;7.60;;
35578;SDS011;21687;48.900;9.188;2023-02-04T09:28:03;18.37;;;6.93;;
35578;SDS011;21687;48.900;9.188;2023-02-04T09:30:30;16.07;;;6.13;;
35578;SDS011;21687;48.900;9.188;2023-02-04T09:32:57;12.63;;;6.30;;
35578;SDS011;21687;48.900;9.188;2023-02-04T09:35:23;12.17;;;5.07;;
35578;SDS011;21687;48.900;9.188;2023-02-04T09:37:49;10.23;;;5.30;;
35578;SDS011;21687;48.900;9.188;2023-02-04T09:40:15;20.33;;;4.70;;
35578;SDS011;21687;48.900;9.188;2023-02-04T09:42:44;12.43;;;3.43;;
35578;SDS011;21687;48.900;9.188;2023-02-04T09:45:17;11.93;;;3.83;;
35578;SDS011;21687;48.900;9.188;2023-02-04T09:47:49;12.73;;;3.80;;
35578;SDS011;21687;48.900;9.188;2023-02-04T09:50:17;11.90;;;3.90;;
35578;SDS011;21687;48.900;9.188;2023-02-04T09:52:47;10.80;;;3.33;;
35578;SDS011;21687;48.900;9.188;2023-02-04T09:55:16;9.77;;;3.03;;
35578;SDS011;21687;48.900;9.188;2023-02-04T09:57:44;9.03;;;3.50;;
35578;SDS011;21687;48.900;9.188;2023-02-04T10:00:15;10.17;;;4.37;;
35578;SDS011;21687;48.900;9.188;2023-02-04T10:02:47;10.30;;;3.57;;
35578;SDS011;21687;48.900;9.188;2023-02-04T10:05:14;13.97;;;3.70;;
35578;SDS011;21687;48.900;9.188;2023-02-04T10:07:42;12.47;;;3.27;;
35578;SDS011;21687;48.900;9.188;2023-02-04T10:10:14;12.73;;;3.50;;
35578;SDS011;21687;48.900;9.188;2023-02-04T10:12:43;16.60;;;3.37;;
35578;SDS011;21687;48.900;9.188;2023-02-04T10:15:13;14.67;;;3.10;;
35578;SDS011;21687;48.900;9.188;2023-02-04T10:17:43;10.33;;;2.93;;
35578;SDS011;21687;48.900;9.188;2023-02-04T10:20:15;13.13;;;3.17;;
35578;SDS011;21687;48.900;9.188;2023-02-04T10:22:44;9.53;;;3.37;;
35578;SDS011;21687;48.900;9.188;2023-02-04T10:25:14;11.53;;;2.97;;
35578;SDS011;21687;48.900;9.188;2023-02-04T10:30:21;14.70;;;3.37;;
35578;SDS011;21687;48.900;9.188;2023-02-04T10:32:47;9.30;;;3.03;;
35578;SDS011;21687;48.900;9.188;2023-02-04T10:35:15;12.40;;;3.40;;
35578;SDS011;21687;48.900;9.188;2023-02-04T10:37:43;7.70;;;3.47;;
35578;SDS011;21687;48.900;9.188;2023-02-04T10:40:24;12.30;;;3.27;;
35578;SDS011;21687;48.900;9.188;2023-02-04T10:42:55;19.73;;;3.33;;
35578;SDS011;21687;48.900;9.188;2023-02-04T10:45:22;14.27;;;3.23;;
35578;SDS011;21687;48.900;9.188;2023-02-04T10:47:51;9.17;;;2.97;;
35578;SDS011;21687;48.900;9.188;2023-02-04T10:50:20;10.03;;;2.83;;
35578;SDS011;21687;48.900;9.188;2023-02-04T10:52:54;10.93;;;3.40;;
35578;SDS011;21687;48.900;9.188;2023-02-04T10:55:44;9.47;;;2.23;;
35578;SDS011;21687;48.900;9.188;2023-02-04T10:58:13;14.57;;;3.23;;
35578;SDS011;21687;48.900;9.188;2023-02-04T11:00:49;11.13;;;3.27;;
35578;SDS011;21687;48.900;9.188;2023-02-04T11:05:49;13.20;;;3.20;;
35578;SDS011;21687;48.900;9.188;2023-02-04T11:08:20;7.77;;;2.73;;
35578;SDS011;21687;48.900;9.188;2023-02-04T11:10:50;12.47;;;3.87;;
35578;SDS011;21687;48.900;9.188;2023-02-04T11:13:20;12.77;;;2.80;;
35578;SDS011;21687;48.900;9.188;2023-02-04T11:15:54;10.03;;;2.97;;
35578;SDS011;21687;48.900;9.188;2023-02-04T11:18:54;13.63;;;3.27;;
35578;SDS011;21687;48.900;9.188;2023-02-04T11:21:27;13.80;;;2.93;;
35578;SDS011;21687;48.900;9.188;2023-02-04T11:24:26;15.13;;;3.13;;
35578;SDS011;21687;48.900;9.188;2023-02-04T11:27:16;10.90;;;3.10;;
35578;SDS011;21687;48.900;9.188;2023-02-04T11:29:48;6.67;;;2.23;;
35578;SDS011;21687;48.900;9.188;2023-02-04T11:37:38;14.20;;;2.63;;
35578;SDS011;21687;48.900;9.188;2023-02-04T11:42:57;10.10;;;2.53;;
35578;SDS011;21687;48.900;9.188;2023-02-04T11:45:33;8.40;;;2.40;;
35578;SDS011;21687;48.900;9.188;2023-02-04T11:48:02;11.23;;;2.20;;
35578;SDS011;21687;48.900;9.188;2023-02-04T11:50:40;13.27;;;3.47;;
35578;SDS011;21687;48.900;9.188;2023-02-04T11:53:10;7.77;;;2.33;;
35578;SDS011;21687;48.900;9.188;2023-02-04T11:55:42;11.77;;;2.50;;
35578;SDS011;21687;48.900;9.188;2023-02-04T11:58:13;12.60;;;2.57;;
35578;SDS011;21687;48.900;9.188;2023-02-04T12:00:42;9.47;;;2.60;;
35578;SDS011;21687;48.900;9.188;2023-02-04T12:03:25;9.63;;;2.47;;
35578;SDS011;21687;48.900;9.188;2023-02-04T12:05:56;11.23;;;3.03;;
35578;SDS011;21687;48.900;9.188;2023-02-04T12:13:29;6.07;;;2.30;;
35578;SDS011;21687;48.900;9.188;2023-02-04T12:16:05;11.27;;;2.57;;
35578;SDS011;21687;48.900;9.188;2023-02-04T12:18:33;13.33;;;2.57;;
35578;SDS011;21687;48.900;9.188;2023-02-04T12:21:00;8.90;;;2.40;;
35578;SDS011;21687;48.900;9.188;2023-02-04T12:23:28;11.87;;;3.53;;
35578;SDS011;21687;48.900;9.188;2023-02-04T12:25:55;11.57;;;3.00;;
35578;SDS011;21687;48.900;9.188;2023-02-04T12:28:22;11.67;;;2.50;;
35578;SDS011;21687;48.900;9.188;2023-02-04T12:30:48;11.67;;;3.30;;
35578;SDS011;21687;48.900;9.188;2023-02-04T12:33:15;9.57;;;2.63;;
35578;SDS011;21687;48.900;9.188;2023-02-04T12:35:41;12.37;;;3.37;;
35578;SDS011;21687;48.900;9.188;2023-02-04T12:38:08;10.90;;;3.23;;
35578;SDS011;21687;48.900;9.188;2023-02-04T12:40:34;11.43;;;3.37;;
35578;SDS011;21687;48.900;9.188;2023-02-04T12:43:01;17.33;;;3.03;;
35578;SDS011;21687;48.900;9.188;2023-02-04T12:45:27;10.67;;;2.70;;
35578;SDS011;21687;48.900;9.188;2023-02-04T12:47:53;11.90;;;3.10;;
35578;SDS011;21687;48.900;9.188;2023-02-04T12:50:19;10.37;;;2.83;;
35578;SDS011;21687;48.900;9.188;2023-02-04T12:52:54;10.67;;;2.77;;
35578;SDS011;21687;48.900;9.188;2023-02-04T12:55:22;15.57;;;5.90;;
35578;SDS011;21687;48.900;9.188;2023-02-04T12:57:49;10.23;;;2.97;;
35578;SDS011;21687;48.900;9.188;2023-02-04T13:00:16;11.73;;;3.43;;
35578;SDS011;21687;48.900;9.188;2023-02-04T13:02:44;11.30;;;2.80;;
35578;SDS011;21687;48.900;9.188;2023-02-04T13:05:11;12.47;;;3.40;;
35578;SDS011;21687;48.900;9.188;2023-02-04T13:07:38;11.27;;;2.67;;
35578;SDS011;21687;48.900;9.188;2023-02-04T13:10:05;6.57;;;2.80;;
35578;SDS011;21687;48.900;9.188;2023-02-04T13:12:54;10.57;;;2.70;;
35578;SDS011;21687;48.900;9.188;2023-02-04T13:15:21;11.37;;;2.80;;
35578;SDS011;21687;48.900;9.188;2023-02-04T13:17:47;13.70;;;3.60;;
35578;SDS011;21687;48.900;9.188;2023-02-04T13:20:13;10.83;;;2.80;;
35578;SDS011;21687;48.900;9.188;2023-02-04T13:22:40;13.90;;;2.93;;
35578;SDS011;21687;48.900;9.188;2023-02-04T13:25:06;11.00;;;2.63;;
35578;SDS011;21687;48.900;9.188;2023-02-04T13:27:34;12.73;;;2.70;;
35578;SDS011;21687;48.900;9.188;2023-02-04T13:30:00;7.60;;;2.90;;
35578;SDS011;21687;48.900;9.188;2023-02-04T13:32:26;12.87;;;2.83;;
35578;SDS011;21687;48.900;9.188;2023-02-04T13:34:53;10.67;;;2.53;;
35578;SDS011;21687;48.900;9.188;2023-02-04T13:37:19;8.70;;;2.20;;
35578;SDS011;21687;48.900;9.188;2023-02-04T13:39:45;6.63;;;2.10;;
35578;SDS011;21687;48.900;9.188;2023-02-04T13:42:12;8.67;;;2.30;;
35578;SDS011;21687;48.900;9.188;2023-02-04T13:44:38;11.23;;;2.33;;
35578;SDS011;21687;48.900;9.188;2023-02-04T13:47:04;11.63;;;2.80;;
35578;SDS011;21687;48.900;9.188;2023-02-04T13:49:31;16.87;;;2.97;;
35578;SDS011;21687;48.900;9.188;2023-02-04T13:51:57;9.23;;;2.50;;
35578;SDS011;21687;48.900;9.188;2023-02-04T13:54:23;7.97;;;2.30;;
35578;SDS011;21687;48.900;9.188;2023-02-04T13:56:50;9.17;;;2.03;;
35578;SDS011;21687;48.900;9.188;2023-02-04T13:59:16;9.47;;;2.10;;
35578;SDS011;21687;48.900;9.188;2023-02-04T14:01:42;10.40;;;2.17;;
35578;SDS011;21687;48.900;9.188;2023-02-04T14:04:09;8.20;;;2.40;;
35578;SDS011;21687;48.900;9.188;2023-02-04T14:06:35;6.60;;;2.40;;
35578;SDS011;21687;48.900;9.188;2023-02-04T14:09:08;13.10;;;2.20;;
35578;SDS011;21687;48.900;9.188;2023-02-04T14:11:36;9.50;;;2.47;;
35578;SDS011;21687;48.900;9.188;2023-02-04T14:14:03;6.73;;;2.00;;
35578;SDS011;21687;48.900;9.188;2023-02-04T14:16:29;11.17;;;2.10;;
35578;SDS011;21687;48.900;9.188;2023-02-04T14:18:55;7.63;;;1.90;;
35578;SDS011;21687;48.900;9.188;2023-02-04T14:21:22;6.93;;;2.30;;
35578;SDS011;21687;48.900;9.188;2023-02-04T14:23:48;6.90;;;2.57;;
35578;SDS011;21687;48.900;9.188;2023-02-04T14:26:14;8.60;;;2.03;;
35578;SDS011;21687;48.900;9.188;2023-02-04T14:28:41;9.90;;;2.37;;
35578;SDS011;21687;48.900;9.188;2023-02-04T14:31:07;7.83;;;2.17;;
35578;SDS011;21687;48.900;9.188;2023-02-04T14:33:33;8.07;;;2.50;;
35578;SDS011;21687;48.900;9.188;2023-02-04T14:36:00;7.07;;;1.80;;
35578;SDS011;21687;48.900;9.188;2023-02-04T14:38:28;9.03;;;2.60;;
35578;SDS011;21687;48.900;9.188;2023-02-04T14:40:56;9.70;;;2.23;;
35578;SDS011;21687;48.900;9.188;2023-02-04T14:43:22;6.30;;;2.57;;
35578;SDS011;21687;48.900;9.188;2023-02-04T14:45:49;7.63;;;1.80;;
35578;SDS011;21687;48.900;9.188;2023-02-04T14:48:15;3.37;;;1.47;;
35578;SDS011;21687;48.900;9.188;2023-02-04T14:50:41;6.77;;;1.77;;
35578;SDS011;21687;48.900;9.188;2023-02-04T14:53:08;5.27;;;2.37;;
35578;SDS011;21687;48.900;9.188;2023-02-04T14:55:34;3.27;;;1.83;;
35578;SDS011;21687;48.900;9.188;2023-02-04T14:58:00;4.00;;;1.57;;
35578;SDS011;21687;48.900;9.188;2023-02-04T15:00:26;9.33;;;2.40;;
35578;SDS011;21687;48.900;9.188;2023-02-04T15:02:53;7.13;;;2.03;;